SOUTHBEND Weather Reports


Display with metric or nautical units.
time (UTC)temp
F
wind
direction
speed
MPH
gust
MPH
rain 1hr
in
rain 24hr
in
rain mn
in
humidity
%
barometer
mb
20240518224053 83 39 10.0 17.0 0.00 0.00 0.00 74 1013.8
20240518223554 83 62 5.0 12.0 0.00 0.00 0.00 72 1014.3
20240518223101 82 84 5.0 16.0 0.00 0.00 0.00 74 1014.2
20240518222552 82 58 6.0 16.0 0.00 0.00 0.00 77 1014.3
20240518222051 82 66 10.0 16.0 0.00 0.00 0.00 77 1014.1
20240518221551 82 83 5.0 7.0 0.00 0.00 0.00 77 1013.7
20240518221048 83 156 3.0 7.0 0.00 0.00 0.00 76 1013.8
20240518220552 83 67 1.0 7.0 0.00 0.00 0.00 75 1013.6
20240518220052 83 225 1.0 13.0 0.00 0.00 0.00 74 1013.7
20240518215552 83 73 1.0 15.0 0.00 0.00 0.00 74 1013.8
20240518215049 83 142 6.0 15.0 0.00 0.00 0.00 73 1014.1
20240518214548 84 74 7.0 13.0 0.00 0.00 0.00 74 1014.5
20240518214050 84 70 5.0 14.0 0.00 0.00 0.00 77 1014.3
20240518213549 84 65 6.0 23.0 0.00 0.00 0.00 75 1014.0
20240518213050 85 75 7.0 23.0 0.00 0.00 0.00 75 1014.0
20240518212552 87 85 12.0 23.0 0.00 0.00 0.00 71 1014.0
20240518212049 90 56 2.0 7.0 0.00 0.00 0.00 75 1013.8
20240518211551 90 263 3.0 7.0 0.00 0.00 0.00 73 1013.1
20240518211050 90 242 2.0 8.0 0.00 0.00 0.00 73 1012.9
20240518210549 90 265 3.0 8.0 0.00 0.00 0.00 74 1012.9
20240518210051 91 184 2.0 7.0 0.00 0.00 0.00 73 1013.2
20240518205549 91 164 2.0 7.0 0.00 0.00 0.00 74 1013.3
20240518205052 91 235 3.0 8.0 0.00 0.00 0.00 73 1013.3
20240518204551 91 176 3.0 9.0 0.00 0.00 0.00 74 1013.4
20240518204052 91 219 3.0 9.0 0.00 0.00 0.00 72 1013.4
20240518203552 91 226 2.0 7.0 0.00 0.00 0.00 72 1013.6
20240518203052 91 132 3.0 9.0 0.00 0.00 0.00 71 1013.6
20240518202553 92 252 3.0 9.0 0.00 0.00 0.00 70 1013.5
20240518202051 93 205 3.0 9.0 0.00 0.00 0.00 67 1013.4
20240518201552 93 243 3.0 9.0 0.00 0.00 0.00 67 1013.5
20240518201052 93 77 3.0 7.0 0.00 0.00 0.00 69 1013.6
20240518200549 93 188 3.0 6.0 0.00 0.00 0.00 68 1013.8
20240518200101 94 195 2.0 8.0 0.00 0.00 0.00 66 1013.8
20240518195549 94 214 3.0 8.0 0.00 0.00 0.00 65 1013.7
20240518195049 93 262 3.0 8.0 0.00 0.00 0.00 65 1014.0
20240518194558 94 173 3.0 8.0 0.00 0.00 0.00 65 1014.1
20240518194055 94 203 2.0 9.0 0.00 0.00 0.00 66 1014.1
20240518193550 93 244 3.0 9.0 0.00 0.00 0.00 66 1014.2
20240518193057 93 254 3.0 9.0 0.00 0.00 0.00 66 1014.3
20240518192551 94 150 2.0 6.0 0.00 0.00 0.00 65 1014.3
20240518192052 94 206 2.0 7.0 0.00 0.00 0.00 66 1014.5
20240518191553 94 133 2.0 7.0 0.00 0.00 0.00 65 1014.6
20240518191104 94 269 3.0 7.0 0.00 0.00 0.00 64 1014.7
20240518190553 94 237 3.0 7.0 0.00 0.00 0.00 65 1014.9
20240518190054 95 226 3.0 7.0 0.00 0.00 0.00 64 1014.8
20240518185553 94 300 2.0 7.0 0.00 0.00 0.00 66 1014.8
20240518185058 95 265 2.0 7.0 0.00 0.00 0.00 65 1015.0
20240518184552 95 172 3.0 7.0 0.00 0.00 0.00 66 1015.0
20240518184052 95 262 2.0 8.0 0.00 0.00 0.00 66 1015.0
20240518183552 95 194 2.0 8.0 0.00 0.00 0.00 68 1015.0
20240518183100 94 101 3.0 11.0 0.00 0.00 0.00 69 1015.1
20240518182553 94 269 3.0 11.0 0.00 0.00 0.00 66 1015.2
20240518182053 94 203 2.0 5.0 0.00 0.00 0.00 68 1015.1
20240518181553 94 252 2.0 6.0 0.00 0.00 0.00 67 1015.1
20240518181057 94 224 2.0 6.0 0.00 0.00 0.00 68 1015.0
20240518180554 94 238 2.0 6.0 0.00 0.00 0.00 67 1015.2
20240518180103 94 259 3.0 6.0 0.00 0.00 0.00 67 1015.2
20240518175554 94 238 2.0 5.0 0.00 0.00 0.00 68 1015.2
20240518175053 93 146 1.0 5.0 0.00 0.00 0.00 68 1015.1
20240518174551 94 240 1.0 7.0 0.00 0.00 0.00 66 1015.3
20240518174052 94 215 1.0 7.0 0.00 0.00 0.00 67 1015.4
20240518173551 94 129 2.0 7.0 0.00 0.00 0.00 65 1015.3
20240518173104 95 236 2.0 5.0 0.00 0.00 0.00 67 1015.3
20240518172552 95 198 1.0 4.0 0.00 0.00 0.00 68 1015.3
20240518172054 94 99 1.0 4.0 0.00 0.00 0.00 67 1015.4
20240518171602 94 41 1.0 6.0 0.00 0.00 0.00 68 1015.4
20240518171054 94 249 1.0 6.0 0.00 0.00 0.00 66 1015.4
20240518170553 96 237 1.0 5.0 0.00 0.00 0.00 65 1015.2
20240518170051 97 243 1.0 7.0 0.00 0.00 0.00 61 1015.2
20240518165551 96 0 0.0 7.0 0.00 0.00 0.00 57 1015.2
20240518165053 97 281 2.0 7.0 0.00 0.00 0.00 55 1015.2
20240518164605 98 274 2.0 6.0 0.00 0.00 0.00 56 1015.2
20240518164053 97 314 1.0 6.0 0.00 0.00 0.00 56 1015.1
20240518163551 97 248 1.0 6.0 0.00 0.00 0.00 56 1015.3
20240518163105 97 233 0.0 4.0 0.00 0.00 0.00 55 1015.3
20240518162553 97 262 1.0 4.0 0.00 0.00 0.00 57 1015.4
20240518162052 96 243 0.0 4.0 0.00 0.00 0.00 57 1015.4
20240518161555 96 0 2.0 6.0 0.00 0.00 0.00 58 1015.5
20240518161053 96 249 2.0 6.0 0.00 0.00 0.00 57 1015.5
20240518160553 96 261 2.0 6.0 0.00 0.00 0.00 55 1015.6
20240518160100 96 233 2.0 6.0 0.00 0.00 0.00 56 1015.4
20240518155553 96 354 3.0 8.0 0.00 0.00 0.00 55 1015.5
20240518155048 97 264 2.0 8.0 0.00 0.00 0.00 54 1015.5
20240518154554 97 229 3.0 8.0 0.00 0.00 0.00 54 1015.5
20240518154053 96 207 1.0 8.0 0.00 0.00 0.00 55 1015.5
20240518153549 96 242 3.0 8.0 0.00 0.00 0.00 56 1015.6
20240518153050 96 46 1.0 5.0 0.00 0.00 0.00 57 1015.6
20240518152552 95 230 2.0 4.0 0.00 0.00 0.00 58 1015.6
20240518152052 95 288 2.0 6.0 0.00 0.00 0.00 58 1015.4
20240518151552 95 219 2.0 7.0 0.00 0.00 0.00 59 1015.4
20240518151049 95 262 2.0 7.0 0.00 0.00 0.00 58 1015.4
20240518150552 95 252 2.0 5.0 0.00 0.00 0.00 58 1015.4
20240518150103 95 234 1.0 6.0 0.00 0.00 0.00 60 1015.3
20240518145552 94 226 2.0 6.0 0.00 0.00 0.00 59 1015.3
20240518145048 94 96 1.0 6.0 0.00 0.00 0.00 62 1015.3
20240518144554 93 256 2.0 6.0 0.00 0.00 0.00 63 1015.3
20240518144053 92 300 2.0 5.0 0.00 0.00 0.00 63 1015.4
20240518143552 92 266 2.0 7.0 0.00 0.00 0.00 65 1015.4
20240518143104 92 293 2.0 7.0 0.00 0.00 0.00 64 1015.3
20240518142548 91 260 2.0 8.0 0.00 0.00 0.00 66 1015.4
20240518142051 91 277 3.0 8.0 0.00 0.00 0.00 65 1015.4
20240518141556 91 274 2.0 8.0 0.00 0.00 0.00 66 1015.4
20240518141050 90 316 3.0 8.0 0.00 0.00 0.00 67 1015.3
20240518140556 91 312 2.0 6.0 0.00 0.00 0.00 69 1015.2
20240518140059 90 276 1.0 8.0 0.00 0.00 0.00 68 1015.3
20240518135551 90 224 3.0 8.0 0.00 0.00 0.00 69 1015.1
20240518135052 90 300 2.0 5.0 0.00 0.00 0.00 71 1015.0
20240518134551 90 294 1.0 6.0 0.00 0.00 0.00 72 1014.9
20240518134051 89 276 2.0 6.0 0.00 0.00 0.00 72 1015.0
20240518133551 89 268 2.0 6.0 0.00 0.00 0.00 74 1015.0
20240518133102 89 162 1.0 6.0 0.00 0.00 0.00 74 1015.0
20240518132553 88 269 1.0 5.0 0.00 0.00 0.00 76 1015.1
20240518132053 87 169 2.0 7.0 0.00 0.00 0.00 77 1015.1
20240518131552 87 269 2.0 7.0 0.00 0.00 0.00 77 1014.9
20240518131051 87 224 2.0 6.0 0.00 0.00 0.00 78 1014.9
20240518130551 86 240 1.0 5.0 0.00 0.00 0.00 80 1015.0
20240518130101 86 286 1.0 5.0 0.00 0.00 0.00 81 1015.0
20240518125551 85 282 1.0 5.0 0.00 0.00 0.00 81 1015.2
20240518125051 85 64 1.0 5.0 0.00 0.00 0.00 82 1015.3
20240518124558 85 262 1.0 5.0 0.00 0.00 0.00 82 1015.3
20240518124054 84 0 0.0 5.0 0.00 0.00 0.00 83 1015.3
20240518123549 84 0 1.0 5.0 0.00 0.00 0.00 83 1015.2
20240518123108 84 256 0.0 3.0 0.00 0.00 0.00 84 1015.1
20240518122552 83 248 0.0 4.0 0.00 0.00 0.00 85 1015.1
20240518122052 83 0 0.0 4.0 0.00 0.00 0.00 85 1015.1
20240518121551 82 264 0.0 5.0 0.00 0.00 0.00 86 1015.1
20240518121049 82 269 1.0 5.0 0.00 0.00 0.00 88 1014.9
20240518120553 81 234 1.0 3.0 0.00 0.00 0.00 88 1014.9
20240518120057 81 259 0.0 2.0 0.00 0.00 0.00 89 1014.8
20240518115549 80 274 0.0 3.0 0.00 0.00 0.00 89 1014.7
20240518115051 80 0 0.0 3.0 0.00 0.00 0.00 90 1014.7
20240518114601 79 224 1.0 4.0 0.00 0.00 0.00 90 1014.7
20240518114049 79 237 0.0 4.0 0.00 0.00 0.00 91 1014.9
20240518113550 78 315 0.0 3.0 0.00 0.00 0.00 91 1014.9
20240518113107 78 233 1.0 2.0 0.00 0.00 0.00 91 1014.9
20240518112551 78 254 1.0 2.0 0.00 0.00 0.00 91 1015.0
20240518112051 77 255 0.0 2.0 0.00 0.00 0.00 92 1014.9
20240518111555 77 0 0.0 2.0 0.00 0.00 0.00 92 1015.0
20240518111050 77 250 0.0 3.0 0.00 0.00 0.00 92 1015.1
20240518110551 76 256 0.0 3.0 0.00 0.00 0.00 92 1015.0
20240518110059 76 271 0.0 2.0 0.00 0.00 0.00 92 1015.1
20240518105549 76 266 0.0 4.0 0.00 0.00 0.00 92 1015.0
20240518105055 76 221 0.0 4.0 0.00 0.00 0.00 92 1014.9
20240518104550 76 253 1.0 3.0 0.00 0.00 0.00 92 1014.9
20240518104055 76 264 1.0 3.0 0.00 0.00 0.00 92 1015.1
20240518103552 76 269 1.0 3.0 0.00 0.00 0.00 92 1015.0
20240518103052 76 274 1.0 3.0 0.00 0.00 0.00 93 1015.2
20240518102549 76 254 0.0 2.0 0.00 0.00 0.00 93 1015.1
20240518102052 76 311 0.0 2.0 0.00 0.00 0.00 93 1015.2
20240518101553 76 265 1.0 2.0 0.00 0.00 0.00 93 1015.2
20240518101048 76 0 0.0 2.0 0.00 0.00 0.00 93 1015.3
20240518100551 76 263 1.0 2.0 0.00 0.00 0.00 94 1015.1
20240518100052 76 251 1.0 2.0 0.00 0.00 0.00 94 1015.2
20240518095550 76 248 0.0 2.0 0.00 0.00 0.00 94 1015.3
20240518095051 76 0 0.0 1.0 0.00 0.00 0.00 94 1015.4
20240518094557 76 0 0.0 1.0 0.00 0.00 0.00 94 1015.4
20240518094055 76 266 0.0 0.0 0.00 0.00 0.00 93 1015.3
20240518093552 76 0 0.0 0.0 0.00 0.00 0.00 93 1015.2
20240518093103 76 0 0.0 0.0 0.00 0.00 0.00 93 1015.2
20240518092553 76 0 0.0 0.0 0.00 0.00 0.00 93 1015.1
20240518092055 76 0 0.0 0.0 0.00 0.00 0.00 93 1015.1
20240518091552 76 0 0.0 0.0 0.00 0.00 0.00 93 1015.1
20240518091053 76 0 0.0 0.0 0.00 0.00 0.00 93 1015.1
20240518090552 76 0 0.0 0.0 0.00 0.00 0.00 93 1015.2
20240518090100 76 0 0.0 0.0 0.00 0.00 0.00 93 1015.1
20240518085552 76 0 0.0 0.0 0.00 0.00 0.00 93 1014.9
20240518085055 76 0 0.0 0.0 0.00 0.00 0.00 93 1014.9
20240518084555 76 0 0.0 1.0 0.00 0.00 0.00 92 1014.8
20240518084053 76 0 0.0 2.0 0.00 0.00 0.00 92 1014.9
20240518083551 76 0 0.0 2.0 0.00 0.00 0.00 93 1014.7
20240518083055 76 0 0.0 1.0 0.00 0.00 0.00 93 1014.6
20240518082555 76 0 0.0 1.0 0.00 0.00 0.00 93 1014.4
20240518082055 76 0 0.0 1.0 0.00 0.00 0.00 92 1014.4
20240518081557 76 0 0.0 1.0 0.00 0.00 0.00 93 1014.5
20240518081055 76 0 0.0 1.0 0.00 0.00 0.00 92 1014.6
20240518080553 77 0 0.0 1.0 0.00 0.00 0.00 93 1014.5
20240518080108 77 0 0.0 1.0 0.00 0.00 0.00 93 1014.5
20240518075554 76 0 0.0 1.0 0.00 0.00 0.00 93 1014.4
20240518075051 77 0 0.0 0.0 0.00 0.00 0.00 93 1014.5
20240518074616 77 0 0.0 1.0 0.00 0.00 0.00 93 1014.5
20240518074053 77 0 0.0 1.0 0.00 0.00 0.00 93 1014.5
20240518073552 77 0 0.0 1.0 0.00 0.00 0.00 93 1014.5
20240518073133 77 0 0.0 1.0 0.00 0.00 0.00 93 1014.6
20240518072557 77 0 0.0 1.0 0.00 0.00 0.00 93 1014.5
20240518072052 77 0 0.0 1.0 0.00 0.00 0.00 93 1014.7
20240518071629 77 0 0.0 0.0 0.00 0.00 0.00 93 1014.7
20240518071056 77 0 0.0 0.0 0.00 0.00 0.00 93 1014.8
20240518070554 77 0 0.0 0.0 0.00 0.00 0.00 93 1014.8
20240518070132 77 0 0.0 1.0 0.00 0.00 0.00 93 1014.8
20240518065552 77 0 0.0 1.0 0.00 0.00 0.00 93 1014.9
20240518065052 77 0 0.0 1.0 0.00 0.00 0.00 93 1015.0
20240518064623 77 0 0.0 0.0 0.00 0.00 0.00 93 1015.0
20240518064056 77 0 0.0 0.0 0.00 0.00 0.00 93 1014.9
20240518063553 77 0 0.0 0.0 0.00 0.00 0.00 92 1015.0
20240518063126 77 0 0.0 0.0 0.00 0.00 0.00 92 1015.0
20240518062553 78 0 0.0 0.0 0.00 0.00 0.00 92 1015.0
20240518062053 78 0 0.0 0.0 0.00 0.00 0.00 92 1015.1
20240518061617 78 0 0.0 0.0 0.00 0.00 0.00 92 1015.1
20240518061053 78 0 0.0 0.0 0.00 0.00 0.00 91 1015.1
20240518060553 78 0 0.0 0.0 0.00 0.00 0.00 91 1015.3
20240518060116 78 0 0.0 0.0 0.00 0.00 0.00 91 1015.2
20240518055553 79 0 0.0 0.0 0.00 0.00 0.00 91 1015.2
20240518055055 79 0 0.0 0.0 0.00 0.00 0.00 90 1015.3
20240518054630 79 0 0.0 0.0 0.00 0.00 0.00 90 1015.4
20240518054057 79 0 0.0 0.0 0.00 0.00 0.00 89 1015.3
20240518053556 79 0 0.0 0.0 0.00 0.00 0.00 89 1015.1
20240518053136 79 0 0.0 0.0 0.00 0.00 0.00 89 1015.1
20240518052553 80 0 0.0 1.0 0.00 0.00 0.00 89 1015.1
20240518052053 80 0 0.0 1.0 0.00 0.00 0.00 89 1015.2
20240518051632 80 0 0.0 1.0 0.00 0.00 0.00 89 1015.2
20240518051054 80 0 0.0 0.0 0.00 0.00 0.00 89 1015.2
20240518050616 80 0 0.0 0.0 0.00 0.00 0.00 89 1015.1
20240518050127 80 0 0.0 0.0 0.00 0.00 0.00 88 1015.0
20240518045553 80 0 0.0 0.0 0.00 0.00 0.00 88 1015.0
20240518045056 80 0 0.0 0.0 0.00 0.00 0.00 87 1015.1
20240518044621 80 0 0.0 0.0 0.00 0.00 0.00 87 1015.1
20240518044052 81 0 0.0 0.0 0.00 0.00 0.00 86 1015.0
20240518043555 81 0 0.0 0.0 0.00 0.00 0.00 85 1015.1
20240518043143 81 0 0.0 0.0 0.00 0.00 0.00 85 1015.0
20240518042554 81 0 0.0 0.0 0.00 0.00 0.00 85 1014.9
20240518042100 82 0 0.0 0.0 0.00 0.00 0.00 84 1015.0
20240518041645 82 0 0.0 0.0 0.00 0.00 0.00 84 1014.9
20240518041055 82 0 0.0 0.0 0.00 0.00 0.00 83 1015.0
20240518040555 82 0 0.0 1.0 0.00 0.00 0.00 83 1015.0
20240518040129 83 0 0.0 1.0 0.00 0.00 0.00 83 1015.2
20240518035553 83 0 0.0 2.0 0.00 0.00 0.00 83 1015.2
20240518035052 83 0 0.0 2.0 0.00 0.00 0.00 83 1015.1
20240518034631 83 278 0.0 1.0 0.00 0.00 0.00 83 1015.1
20240518034055 83 0 0.0 1.0 0.00 0.00 0.00 82 1015.0
20240518033552 83 0 0.0 2.0 0.00 0.00 0.00 82 1015.0
20240518033140 83 0 0.0 2.0 0.00 0.00 0.00 82 1015.1
20240518032548 83 229 0.0 1.0 0.00 0.00 0.00 81 1014.8
20240518032051 83 0 0.0 3.0 0.00 0.00 0.00 81 1014.7
20240518031629 83 241 1.0 3.0 0.00 0.00 0.00 81 1014.8
20240518031056 83 0 0.0 3.0 0.00 0.00 0.00 80 1014.7
20240518030553 83 247 0.0 5.0 0.00 0.00 0.00 80 1014.6
20240518030132 84 203 0.0 5.0 0.00 0.00 0.00 80 1014.5
20240518025552 84 226 0.0 4.0 0.00 0.00 0.00 80 1014.5
20240518025050 84 241 1.0 3.0 0.00 0.00 0.00 79 1014.4
20240518024613 84 239 1.0 3.0 0.00 0.00 0.00 80 1014.6
20240518024052 84 231 0.0 2.0 0.00 0.00 0.00 80 1014.5
20240518023552 84 0 0.0 2.0 0.00 0.00 0.00 79 1014.6
20240518023107 84 245 0.0 3.0 0.00 0.00 0.00 79 1014.4
20240518022559 84 251 0.0 3.0 0.00 0.00 0.00 79 1014.1
20240518022050 84 225 1.0 2.0 0.00 0.00 0.00 79 1014.1
20240518021616 84 246 0.0 2.0 0.00 0.00 0.00 79 1014.0
20240518021051 84 259 0.0 2.0 0.00 0.00 0.00 79 1014.0
20240518020549 84 276 0.0 3.0 0.00 0.00 0.00 79 1013.8
20240518020059 84 186 0.0 3.0 0.00 0.00 0.00 78 1013.7
20240518015555 85 253 0.0 3.0 0.00 0.00 0.00 78 1013.8
20240518015054 84 266 1.0 3.0 0.00 0.00 0.00 79 1013.7
20240518014601 84 248 0.0 2.0 0.00 0.00 0.00 79 1013.5
20240518014049 84 0 0.0 2.0 0.00 0.00 0.00 79 1013.5
20240518013553 85 233 0.0 2.0 0.00 0.00 0.00 79 1013.4
20240518013106 85 232 0.0 2.0 0.00 0.00 0.00 79 1013.4
20240518012553 85 230 0.0 2.0 0.00 0.00 0.00 80 1013.6
20240518012049 85 233 0.0 1.0 0.00 0.00 0.00 80 1013.4
20240518011554 85 0 0.0 1.0 0.00 0.00 0.00 79 1013.3
20240518011053 85 0 0.0 1.0 0.00 0.00 0.00 79 1013.3
20240518010551 85 0 0.0 2.0 0.00 0.00 0.00 78 1013.2
20240518010100 85 262 0.0 2.0 0.00 0.00 0.00 78 1013.3
20240518005549 85 0 0.0 2.0 0.00 0.00 0.00 78 1013.1
20240518005051 85 252 0.0 2.0 0.00 0.00 0.00 78 1013.0
20240518004557 85 235 1.0 6.0 0.00 0.00 0.00 77 1012.9
20240518004051 86 243 0.0 6.0 0.00 0.00 0.00 77 1013.0
20240518003556 86 217 0.0 5.0 0.00 0.00 0.00 77 1012.8
20240518003057 86 221 0.0 5.0 0.00 0.00 0.00 76 1012.6
20240518002552 86 272 1.0 5.0 0.00 0.00 0.00 76 1012.8
20240518002056 86 244 1.0 3.0 0.00 0.00 0.00 76 1012.9
20240518001603 86 287 1.0 3.0 0.00 0.00 0.00 76 1012.8
20240518001052 86 253 0.0 5.0 0.00 0.00 0.00 76 1012.7
20240518000554 87 0 1.0 7.0 0.00 0.00 0.00 75 1012.6
20240518000052 87 220 2.0 7.0 0.00 0.00 0.00 75 1012.5
20240517235552 87 231 1.0 6.0 0.00 0.00 0.00 75 1012.5
20240517235052 87 238 1.0 6.0 0.00 0.00 0.00 74 1012.3
20240517234608 87 277 3.0 6.0 0.00 0.00 0.00 74 1012.2
20240517234051 88 212 2.0 6.0 0.00 0.00 0.00 74 1012.3
20240517233552 88 240 2.0 7.0 0.00 0.00 0.00 73 1012.2
20240517233053 88 223 1.0 7.0 0.00 0.00 0.00 73 1012.0
20240517232551 88 267 1.0 5.0 0.00 0.00 0.00 73 1012.1
20240517232050 89 275 2.0 6.0 0.00 0.00 0.00 72 1012.2
20240517231603 89 233 2.0 6.0 0.00 0.00 0.00 72 1012.1
20240517231050 89 249 2.0 5.0 0.00 0.00 0.00 71 1012.0
20240517230554 90 228 2.0 5.0 0.00 0.00 0.00 70 1012.0
20240517230052 90 227 1.0 6.0 0.00 0.00 0.00 69 1012.0
20240517225552 90 210 2.0 6.0 0.00 0.00 0.00 68 1011.9
20240517225052 91 209 2.0 7.0 0.00 0.00 0.00 67 1012.1
20240517224553 91 230 3.0 8.0 0.00 0.00 0.00 67 1012.1